Time;durP1;ratioP1;P1;durP2;ratioP2;P2;SDS_P1;SDS_P2;PMS_P1;PMS_P2;Temp;Humidity;BMP_temperature;BMP_pressure;BME280_temperature;BME280_humidity;BME280_pressure;Samples;Min_cycle;Max_cycle;Signal;HPM_P1;HPM_P2
2022/08/22 00:01:31;;;;;;;11.82;10.18;;;16.00;99.90;;;;;;5096632;28;20035;-77
2022/08/22 00:04:06;;;;;;;13.52;10.65;;;16.00;99.90;;;;;;5097016;28;20031;-77
2022/08/22 00:06:47;;;;;;;14.35;11.27;;;15.90;99.90;;;;;;5096901;28;20047;-77
2022/08/22 00:09:34;;;;;;;11.80;10.57;;;15.90;99.90;;;;;;5096885;28;20031;-78
2022/08/22 00:12:02;;;;;;;12.82;11.00;;;15.90;99.90;;;;;;5096642;28;20533;-77
2022/08/22 00:14:38;;;;;;;14.05;11.15;;;15.90;99.90;;;;;;5095450;28;20029;-77
2022/08/22 00:17:19;;;;;;;13.88;11.13;;;15.90;99.90;;;;;;5096760;28;20036;-77
2022/08/22 00:19:59;;;;;;;13.73;10.45;;;15.80;99.90;;;;;;5095335;28;20044;-77
2022/08/22 00:22:41;;;;;;;15.00;10.85;;;15.80;99.90;;;;;;5094357;28;20071;-77
2022/08/22 00:25:34;;;;;;;15.35;11.05;;;15.90;99.90;;;;;;5096632;28;20027;-77
2022/08/22 00:28:09;;;;;;;13.50;11.35;;;15.80;99.90;;;;;;5096531;28;20054;-77
2022/08/22 00:31:03;;;;;;;14.05;11.60;;;15.80;99.90;;;;;;5096386;28;20078;-78
2022/08/22 00:33:50;;;;;;;16.95;11.55;;;15.80;99.90;;;;;;5084105;28;20437;-77
2022/08/22 00:36:36;;;;;;;16.50;11.85;;;15.80;99.90;;;;;;5096672;28;20027;-77
2022/08/22 00:39:20;;;;;;;18.00;11.63;;;15.80;99.90;;;;;;5096845;28;20024;-77
2022/08/22 00:42:01;;;;;;;15.57;12.02;;;15.80;99.90;;;;;;5095933;28;20020;-77
2022/08/22 00:45:01;;;;;;;13.57;11.48;;;15.80;99.90;;;;;;5096286;28;20027;-77
2022/08/22 00:47:45;;;;;;;12.30;11.07;;;15.80;99.90;;;;;;5094960;28;20465;-77
2022/08/22 00:50:14;;;;;;;14.93;10.45;;;15.80;99.90;;;;;;5094937;28;20381;-77
2022/08/22 00:53:23;;;;;;;14.90;11.90;;;15.80;99.90;;;;;;5096333;28;20035;-77
2022/08/22 00:56:26;;;;;;;15.00;11.68;;;15.80;99.90;;;;;;5096235;28;20054;-77
2022/08/22 00:59:13;;;;;;;15.60;11.73;;;15.70;99.90;;;;;;5094580;28;20028;-77
2022/08/22 01:02:30;;;;;;;12.85;10.02;;;15.70;99.90;;;;;;5095608;28;20020;-77
2022/08/22 01:05:01;;;;;;;15.00;10.98;;;15.70;99.90;;;;;;5092858;28;20036;-78
2022/08/22 01:08:09;;;;;;;14.05;11.90;;;15.70;99.90;;;;;;5095592;28;20027;-77
2022/08/22 01:10:59;;;;;;;14.18;10.98;;;15.70;99.90;;;;;;5094143;28;20031;-76
2022/08/22 01:13:34;;;;;;;13.82;11.30;;;15.70;99.90;;;;;;5094274;28;20031;-77
2022/08/22 01:16:18;;;;;;;16.10;11.85;;;15.70;99.90;;;;;;5095465;28;20103;-77
2022/08/22 01:18:55;;;;;;;13.48;11.38;;;15.70;99.90;;;;;;5095143;28;20040;-77
2022/08/22 01:21:58;;;;;;;13.07;11.70;;;15.60;99.90;;;;;;5095488;28;20116;-77
2022/08/22 01:27:46;;;;;;;;;;;15.60;99.90;;;;;;5095600;28;20034;-76
2022/08/22 01:30:27;;;;;;;;;;;15.50;99.90;;;;;;5095809;28;19912;-77
2022/08/22 01:33:20;;;;;;;15.63;12.40;;;15.50;99.90;;;;;;5095040;28;19904;-76
2022/08/22 01:35:46;;;;;;;14.82;12.10;;;15.50;99.90;;;;;;5093931;28;20024;-76
2022/08/22 01:38:11;;;;;;;16.05;11.93;;;15.50;99.90;;;;;;5095364;28;20085;-76
2022/08/22 01:40:56;;;;;;;13.57;10.70;;;15.50;99.90;;;;;;5095351;28;20031;-75
2022/08/22 01:43:53;;;;;;;13.20;10.82;;;15.50;99.90;;;;;;5094981;28;20047;-75
2022/08/22 01:47:02;;;;;;;12.50;11.20;;;15.50;99.90;;;;;;5093809;28;20037;-75
2022/08/22 01:49:42;;;;;;;11.00;8.43;;;15.40;99.90;;;;;;5093672;28;20032;-75
2022/08/22 01:52:11;;;;;;;13.55;9.52;;;15.40;99.90;;;;;;5094020;28;20366;-75
2022/08/22 01:54:57;;;;;;;15.95;9.90;;;15.30;99.90;;;;;;5093851;28;20466;-75
2022/08/22 01:57:25;;;;;;;11.60;9.63;;;15.30;99.90;;;;;;5093762;28;20036;-75
2022/08/22 01:59:54;;;;;;;15.50;10.98;;;15.30;99.90;;;;;;5093147;28;20020;-75
2022/08/22 02:02:41;;;;;;;11.10;9.05;;;15.30;99.90;;;;;;5094683;28;20020;-77
2022/08/22 02:05:17;;;;;;;12.23;10.23;;;15.30;99.90;;;;;;5094830;28;20083;-75
2022/08/22 02:08:04;;;;;;;12.35;8.85;;;15.20;99.90;;;;;;5095021;28;20031;-75
2022/08/22 02:10:49;;;;;;;16.13;9.80;;;15.30;99.90;;;;;;5099356;28;20104;-78
2022/08/22 02:13:48;;;;;;;11.95;9.18;;;15.20;99.90;;;;;;5102596;28;20048;-74
2022/08/22 02:16:22;;;;;;;10.13;8.93;;;15.20;99.90;;;;;;5103811;28;20040;-75
2022/08/22 02:19:07;;;;;;;11.75;9.18;;;15.20;99.90;;;;;;5106743;28;20119;-75
2022/08/22 02:21:55;;;;;;;10.48;9.43;;;15.20;99.90;;;;;;5105219;28;20031;-75
2022/08/22 02:24:33;;;;;;;10.15;8.40;;;15.20;99.90;;;;;;5103978;28;20045;-75
2022/08/22 02:27:20;;;;;;;11.75;8.40;;;15.20;99.90;;;;;;5101173;28;20089;-75
2022/08/22 02:30:15;;;;;;;9.60;8.60;;;15.20;99.90;;;;;;5094126;28;20397;-75
2022/08/22 02:32:41;;;;;;;10.50;9.38;;;15.20;99.90;;;;;;5093105;28;20488;-75
2022/08/22 02:35:24;;;;;;;9.27;8.35;;;15.20;99.90;;;;;;5094176;28;20024;-75
2022/08/22 02:38:12;;;;;;;9.15;7.82;;;15.20;99.90;;;;;;5094223;28;20065;-76
2022/08/22 02:40:50;;;;;;;10.05;7.80;;;15.20;99.90;;;;;;5094214;28;20028;-76
2022/08/22 02:43:43;;;;;;;9.65;8.65;;;15.20;99.90;;;;;;5094178;28;20095;-75
2022/08/22 02:46:14;;;;;;;13.88;9.07;;;15.20;99.90;;;;;;5093841;28;20036;-75
2022/08/22 02:49:22;;;;;;;10.73;8.55;;;15.20;99.90;;;;;;5092779;28;20032;-75
2022/08/22 02:52:16;;;;;;;10.50;9.15;;;15.20;99.90;;;;;;5053661;28;20396;-75
2022/08/22 02:54:42;;;;;;;11.18;9.13;;;15.20;99.90;;;;;;5091752;28;20126;-75
2022/08/22 02:57:30;;;;;;;9.98;8.23;;;15.20;99.90;;;;;;5092599;28;20038;-75
2022/08/22 03:00:16;;;;;;;12.32;8.60;;;15.20;99.90;;;;;;5093961;28;20047;-75
2022/08/22 03:03:06;;;;;;;11.45;8.55;;;15.20;99.90;;;;;;5093924;28;20028;-75
2022/08/22 03:05:37;;;;;;;10.38;8.02;;;15.20;99.90;;;;;;5093405;28;20057;-75
2022/08/22 03:08:27;;;;;;;10.27;8.82;;;15.20;99.90;;;;;;5093438;28;20039;-75
2022/08/22 03:11:28;;;;;;;13.73;8.68;;;15.20;99.90;;;;;;5092455;28;20027;-75
2022/08/22 03:14:27;;;;;;;13.25;9.13;;;15.20;99.90;;;;;;5093791;28;20024;-75
2022/08/22 03:16:53;;;;;;;;;;;15.20;99.90;;;;;;5094229;28;20036;-75
2022/08/22 03:19:20;;;;;;;12.77;8.88;;;15.20;99.90;;;;;;5093671;28;19916;-75
2022/08/22 03:22:02;;;;;;;10.25;8.98;;;15.20;99.90;;;;;;5093583;28;20032;-75
2022/08/22 03:24:38;;;;;;;10.57;9.02;;;15.20;99.90;;;;;;5093681;28;20492;-75
2022/08/22 03:27:12;;;;;;;10.30;8.73;;;15.20;99.90;;;;;;5093680;28;20024;-75
2022/08/22 03:29:49;;;;;;;12.98;9.63;;;15.20;99.90;;;;;;5093747;28;20032;-75
2022/08/22 03:32:21;;;;;;;13.43;9.95;;;15.10;99.90;;;;;;5092500;28;20442;-75
2022/08/22 03:35:03;;;;;;;13.35;9.52;;;15.20;99.90;;;;;;5092539;28;20030;-75
2022/08/22 03:37:41;;;;;;;14.05;9.18;;;15.10;99.90;;;;;;5092142;28;20036;-75
2022/08/22 03:40:07;;;;;;;12.20;8.60;;;15.10;99.90;;;;;;5093514;28;20028;-75
2022/08/22 03:42:41;;;;;;;10.77;9.25;;;15.10;99.90;;;;;;5092131;28;20024;-75
2022/08/22 03:45:27;;;;;;;10.30;9.27;;;15.10;99.90;;;;;;5092879;28;20024;-75
2022/08/22 03:48:11;;;;;;;9.60;8.57;;;15.20;99.90;;;;;;5095424;28;20469;-75
2022/08/22 03:50:37;;;;;;;9.80;8.73;;;15.20;99.90;;;;;;5095834;28;20024;-75
2022/08/22 03:53:14;;;;;;;10.00;8.60;;;15.20;99.90;;;;;;5096164;28;20044;-75
2022/08/22 03:56:01;;;;;;;11.98;8.75;;;15.20;99.90;;;;;;5098022;28;20115;-75
2022/08/22 03:58:41;;;;;;;8.95;7.95;;;15.10;99.90;;;;;;5098544;28;20086;-74
2022/08/22 04:01:35;;;;;;;14.82;8.32;;;15.10;99.90;;;;;;5096988;28;20031;-74
2022/08/22 04:04:30;;;;;;;10.40;8.45;;;15.10;99.90;;;;;;5097539;28;20189;-74
2022/08/22 04:07:02;;;;;;;10.32;8.20;;;15.20;99.90;;;;;;5096680;28;20085;-74
2022/08/22 04:09:27;;;;;;;8.43;7.03;;;15.10;99.90;;;;;;5095663;28;20028;-74
2022/08/22 04:12:27;;;;;;;10.25;7.20;;;15.10;99.90;;;;;;5098960;28;20024;-75
2022/08/22 04:15:26;;;;;;;11.75;8.00;;;15.10;99.90;;;;;;5097109;28;20030;-75
2022/08/22 04:18:21;;;;;;;13.10;8.02;;;15.10;99.90;;;;;;5095399;28;20115;-74
2022/08/22 04:21:06;;;;;;;10.50;6.90;;;15.00;99.90;;;;;;5097220;28;20516;-74
2022/08/22 04:23:47;;;;;;;7.95;7.22;;;15.00;99.90;;;;;;5096537;28;20020;-74
2022/08/22 04:26:41;;;;;;;6.75;6.00;;;15.00;99.90;;;;;;5097773;28;20028;-75
2022/08/22 04:29:37;;;;;;;7.57;6.78;;;15.00;99.90;;;;;;5069949;28;20044;-74
2022/08/22 04:32:15;;;;;;;7.05;5.60;;;14.90;99.90;;;;;;5096527;28;20020;-73
2022/08/22 04:35:16;;;;;;;6.38;5.32;;;14.90;99.90;;;;;;5096225;28;20032;-73
2022/08/22 04:37:56;;;;;;;8.85;5.97;;;14.90;99.90;;;;;;5063706;28;20039;-74
2022/08/22 04:40:27;;;;;;;8.70;6.05;;;14.90;99.90;;;;;;5096822;28;20511;-73
2022/08/22 04:43:07;;;;;;;6.95;5.50;;;14.90;99.90;;;;;;5095230;28;20113;-74
2022/08/22 04:45:40;;;;;;;6.90;5.32;;;14.80;99.90;;;;;;5096381;28;20028;-74
2022/08/22 04:48:17;;;;;;;8.15;4.95;;;14.80;99.90;;;;;;5095106;28;20031;-76
2022/08/22 04:50:56;;;;;;;6.28;5.50;;;14.80;99.90;;;;;;5094826;28;20031;-57
2022/08/22 04:53:43;;;;;;;5.78;4.90;;;15.10;99.90;;;;;;5096033;28;20028;-57
2022/08/22 04:56:45;;;;;;;10.05;4.55;;;15.30;99.90;;;;;;5096353;28;20040;-56
2022/08/22 04:59:15;;;;;;;7.45;3.95;;;15.30;99.90;;;;;;5096149;28;20063;-56
2022/08/22 05:02:04;;;;;;;5.55;3.80;;;15.40;99.90;;;;;;5095836;28;20531;-56
2022/08/22 05:04:53;;;;;;;3.40;2.88;;;15.40;99.90;;;;;;5095775;28;20039;-76
2022/08/22 05:07:22;;;;;;;5.95;3.20;;;15.20;99.90;;;;;;5095422;28;20074;-73
2022/08/22 05:09:55;;;;;;;3.92;3.45;;;15.00;99.90;;;;;;5096286;28;20039;-73
2022/08/22 05:12:28;;;;;;;4.50;3.85;;;14.90;99.90;;;;;;5095626;28;20028;-73
2022/08/22 05:14:59;;;;;;;6.15;3.78;;;14.80;99.90;;;;;;5095725;28;20024;-74
2022/08/22 05:17:28;;;;;;;8.18;4.32;;;14.80;99.90;;;;;;5094414;28;20459;-74
2022/08/22 05:19:58;;;;;;;5.57;3.85;;;14.80;99.90;;;;;;5095755;28;20082;-75
2022/08/22 05:22:27;;;;;;;6.93;4.47;;;14.80;99.90;;;;;;5093954;28;20454;-75
2022/08/22 05:24:58;;;;;;;6.13;4.03;;;14.80;99.90;;;;;;5095406;28;20020;-74
2022/08/22 05:27:29;;;;;;;4.68;4.15;;;14.80;99.90;;;;;;5095209;28;20075;-73
2022/08/22 05:30:23;;;;;;;4.22;3.42;;;14.80;99.90;;;;;;5094913;28;20027;-74
2022/08/22 05:33:02;;;;;;;3.95;3.65;;;14.80;99.90;;;;;;5086205;28;20485;-74
2022/08/22 05:35:37;;;;;;;;;;;14.80;99.90;;;;;;5094438;28;20027;-75
2022/08/22 05:38:06;;;;;;;4.45;3.90;;;14.80;99.90;;;;;;5095088;28;19904;-75
2022/08/22 05:40:33;;;;;;;6.25;3.78;;;14.80;99.90;;;;;;5093616;28;20024;-75
2022/08/22 05:42:59;;;;;;;5.15;3.83;;;14.80;99.90;;;;;;5094730;28;20029;-76
2022/08/22 05:45:27;;;;;;;6.35;4.82;;;14.80;99.90;;;;;;5094342;28;20020;-76
2022/08/22 05:48:04;;;;;;;6.07;4.35;;;14.80;99.90;;;;;;5094709;28;20103;-76
2022/08/22 05:50:48;;;;;;;7.10;4.45;;;14.80;99.90;;;;;;5093419;28;20119;-77
2022/08/22 05:53:31;;;;;;;5.63;4.05;;;14.80;99.90;;;;;;5094806;28;20136;-76
2022/08/22 05:56:11;;;;;;;6.57;4.50;;;14.80;99.90;;;;;;5095091;28;20115;-75
2022/08/22 05:58:42;;;;;;;7.50;4.43;;;14.80;99.90;;;;;;5093323;28;20418;-75
2022/08/22 06:01:37;;;;;;;6.05;4.07;;;14.70;99.90;;;;;;5094803;28;20020;-68
2022/08/22 06:04:08;;;;;;;7.70;5.63;;;14.80;99.90;;;;;;5093766;28;20031;-69
2022/08/22 06:06:53;;;;;;;5.28;4.50;;;14.80;99.90;;;;;;5094314;28;20073;-69
2022/08/22 06:09:49;;;;;;;6.70;4.70;;;14.80;99.90;;;;;;5094400;28;20032;-74
2022/08/22 06:12:43;;;;;;;6.15;5.10;;;14.80;99.90;;;;;;5039102;28;20128;-73
2022/08/22 06:15:28;;;;;;;8.48;5.03;;;14.90;99.90;;;;;;5094044;28;20016;-72
2022/08/22 06:17:59;;;;;;;6.70;4.85;;;14.90;99.90;;;;;;5094188;28;20055;-72
2022/08/22 06:21:06;;;;;;;9.48;5.20;;;14.90;99.90;;;;;;5093384;28;20031;-71
2022/08/22 06:23:48;;;;;;;5.65;4.45;;;14.90;99.90;;;;;;5031692;28;20057;-71
2022/08/22 06:26:15;;;;;;;6.38;4.93;;;14.90;99.90;;;;;;5084769;28;20032;-67
2022/08/22 06:28:46;;;;;;;7.63;5.53;;;14.90;99.90;;;;;;5094165;28;20051;-77
2022/08/22 06:31:20;;;;;;;8.40;6.30;;;15.00;99.90;;;;;;5094284;28;20060;-76
2022/08/22 06:33:59;;;;;;;8.25;6.22;;;14.90;99.90;;;;;;5094430;28;20031;-77
2022/08/22 06:36:32;;;;;;;9.63;5.80;;;15.00;99.90;;;;;;5093891;28;20028;-76
2022/08/22 06:39:16;;;;;;;9.65;6.50;;;15.00;99.90;;;;;;5094049;28;20031;-76
2022/08/22 06:42:23;;;;;;;6.53;5.90;;;15.00;99.90;;;;;;5092639;28;20078;-75
2022/08/22 06:44:58;;;;;;;7.68;6.30;;;15.00;99.90;;;;;;5063282;28;20504;-76
2022/08/22 06:47:35;;;;;;;7.60;6.75;;;15.10;99.90;;;;;;5092193;28;20042;-77
2022/08/22 06:50:11;;;;;;;9.30;6.53;;;15.10;99.90;;;;;;5093951;28;20032;-76
2022/08/22 06:53:01;;;;;;;6.25;5.75;;;15.10;99.90;;;;;;5093876;28;20024;-77
2022/08/22 06:55:29;;;;;;;8.18;5.85;;;15.10;99.90;;;;;;5094066;28;20111;-77
2022/08/22 06:58:17;;;;;;;7.05;5.75;;;15.10;99.90;;;;;;5092690;28;20024;-77
2022/08/22 07:00:43;;;;;;;6.53;5.82;;;15.10;99.90;;;;;;5092491;28;20027;-77
2022/08/22 07:03:24;;;;;;;9.00;5.88;;;15.20;99.90;;;;;;5093465;28;20035;-77
2022/08/22 07:05:53;;;;;;;9.18;6.32;;;15.20;99.90;;;;;;5092953;28;20060;-75
2022/08/22 07:08:21;;;;;;;6.53;5.85;;;15.20;99.90;;;;;;5093729;28;20035;-75
2022/08/22 07:11:18;;;;;;;8.32;6.10;;;15.20;99.90;;;;;;5093964;28;20028;-75
2022/08/22 07:13:55;;;;;;;7.38;6.00;;;15.20;99.90;;;;;;5084336;28;20082;-75
2022/08/22 07:16:39;;;;;;;6.75;5.88;;;15.20;99.90;;;;;;5092304;28;20036;-76
2022/08/22 07:19:07;;;;;;;8.63;6.60;;;15.20;99.90;;;;;;5091888;28;20512;-76
2022/08/22 07:21:47;;;;;;;7.30;6.40;;;15.20;99.90;;;;;;5093571;28;20035;-73
2022/08/22 07:24:16;;;;;;;8.45;7.38;;;15.30;99.90;;;;;;5094113;28;20354;-74
2022/08/22 07:26:53;;;;;;;7.57;6.18;;;15.30;99.90;;;;;;5093454;28;20039;-74
2022/08/22 07:29:36;;;;;;;6.55;5.88;;;15.40;99.90;;;;;;5092218;28;20024;-74
2022/08/22 07:32:17;;;;;;;7.20;6.53;;;15.40;99.90;;;;;;5095825;28;20385;-74
2022/08/22 07:34:55;;;;;;;8.10;6.20;;;15.40;99.90;;;;;;5097489;28;20039;-74
2022/08/22 07:37:27;;;;;;;6.38;5.57;;;15.40;99.90;;;;;;5097094;28;20032;-73
2022/08/22 07:40:20;;;;;;;6.68;6.03;;;15.40;99.90;;;;;;5097011;28;20121;-73
2022/08/22 07:43:10;;;;;;;7.40;5.30;;;15.50;99.90;;;;;;5097206;28;20484;-73
2022/08/22 07:45:57;;;;;;;6.10;5.60;;;15.40;99.90;;;;;;5097348;28;20074;-73
2022/08/22 07:48:32;;;;;;;5.45;4.95;;;15.50;99.90;;;;;;5097416;28;20377;-73
2022/08/22 07:51:01;;;;;;;5.75;5.15;;;15.40;99.90;;;;;;5097354;28;20028;-73
2022/08/22 07:53:38;;;;;;;7.60;5.75;;;15.50;99.90;;;;;;5095835;28;20028;-74
2022/08/22 07:56:08;;;;;;;6.63;5.45;;;15.50;99.90;;;;;;5096454;28;20072;-74
2022/08/22 07:58:38;;;;;;;6.32;5.57;;;15.60;99.90;;;;;;5095378;28;20020;-73
2022/08/22 08:01:08;;;;;;;6.57;5.90;;;15.60;99.90;;;;;;5095703;28;20024;-74
2022/08/22 08:03:34;;;;;;;6.15;5.45;;;15.70;99.90;;;;;;5096959;28;20020;-74
2022/08/22 08:06:01;;;;;;;10.57;5.65;;;15.70;99.90;;;;;;5096860;28;20020;-74
2022/08/22 08:08:40;;;;;;;8.43;5.78;;;15.70;99.90;;;;;;5096761;28;20028;-73
2022/08/22 08:11:09;;;;;;;4.97;4.53;;;15.70;99.90;;;;;;5096865;28;20020;-74
2022/08/22 08:13:37;;;;;;;;;;;15.70;99.90;;;;;;5097067;28;20067;-74
2022/08/22 08:16:07;;;;;;;7.38;4.55;;;15.70;99.90;;;;;;5096720;28;19904;-74
2022/08/22 08:18:35;;;;;;;5.70;5.13;;;15.70;99.90;;;;;;5096237;28;20051;-57
2022/08/22 08:21:26;;;;;;;4.65;4.18;;;15.80;99.90;;;;;;5096407;28;20167;-56
2022/08/22 08:23:53;;;;;;;7.18;4.55;;;16.00;99.90;;;;;;5096398;28;20460;-56
2022/08/22 08:28:32;;;;;;;4.60;3.22;;;16.10;99.90;;;;;;5096254;28;20055;-56
2022/08/22 08:29:27;;;;;;;3.55;3.00;;;16.10;99.90;;;;;;5095930;28;20480;-56
2022/08/22 08:31:54;;;;;;;3.78;3.42;;;16.30;99.90;;;;;;5096053;28;20044;-56
2022/08/22 08:34:23;;;;;;;3.53;3.20;;;16.30;99.90;;;;;;5096061;28;20172;-56
2022/08/22 08:36:56;;;;;;;3.20;2.88;;;16.40;99.90;;;;;;5094912;28;20511;-56
2022/08/22 08:39:29;;;;;;;2.95;2.60;;;16.50;99.90;;;;;;5094938;28;20039;-56
2022/08/22 08:42:20;;;;;;;3.00;2.75;;;16.50;99.90;;;;;;5093564;28;20024;-57
2022/08/22 08:45:13;;;;;;;3.53;3.22;;;16.40;99.90;;;;;;5096051;28;20032;-57
2022/08/22 08:48:16;;;;;;;3.75;3.47;;;16.20;99.90;;;;;;5094959;28;20032;-77
2022/08/22 08:50:53;;;;;;;3.70;3.40;;;16.10;99.90;;;;;;5096102;28;20028;-72
2022/08/22 08:53:51;;;;;;;4.60;4.10;;;16.00;99.90;;;;;;5095900;28;20024;-72
2022/08/22 08:56:23;;;;;;;5.88;3.97;;;15.90;99.90;;;;;;5096418;28;20424;-72
2022/08/22 08:59:01;;;;;;;8.70;4.43;;;15.90;99.90;;;;;;5099920;28;20028;-75
2022/08/22 09:01:46;;;;;;;4.47;4.07;;;15.80;99.90;;;;;;5099586;28;20020;-75
2022/08/22 09:04:36;;;;;;;4.85;4.32;;;15.80;99.90;;;;;;5099117;28;20031;-74
2022/08/22 09:07:40;;;;;;;4.68;3.55;;;15.80;99.90;;;;;;5095915;28;20020;-76
2022/08/22 09:10:32;;;;;;;5.45;4.70;;;15.80;99.90;;;;;;5094482;28;20035;-74
2022/08/22 09:13:16;;;;;;;5.13;4.63;;;15.80;99.90;;;;;;5096014;28;20028;-74
2022/08/22 09:15:53;;;;;;;5.45;4.40;;;15.80;99.90;;;;;;5094593;28;20131;-74
2022/08/22 09:19:13;;;;;;;3.97;3.58;;;15.80;99.90;;;;;;5095027;28;20051;-73
2022/08/22 09:21:53;;;;;;;4.28;3.28;;;15.80;99.90;;;;;;5032595;28;20044;-72
2022/08/22 09:24:37;;;;;;;3.85;3.55;;;15.70;99.90;;;;;;5088325;28;20075;-74
2022/08/22 09:27:14;;;;;;;5.30;3.60;;;15.80;99.90;;;;;;5094954;28;20031;-72
2022/08/22 09:29:43;;;;;;;3.17;2.88;;;15.90;99.90;;;;;;5095364;28;20123;-73
2022/08/22 09:32:17;;;;;;;3.42;3.13;;;15.80;99.90;;;;;;5095016;28;20028;-73
2022/08/22 09:35:03;;;;;;;4.75;3.30;;;15.80;99.90;;;;;;5093700;28;20465;-72
2022/08/22 09:37:38;;;;;;;3.25;2.95;;;15.90;99.90;;;;;;5093653;28;20028;-73
2022/08/22 09:40:15;;;;;;;2.58;2.40;;;15.90;99.90;;;;;;5095027;28;20027;-74
2022/08/22 09:42:53;;;;;;;2.38;2.28;;;16.00;99.90;;;;;;5095154;28;20031;-75
2022/08/22 09:45:56;;;;;;;2.10;2.00;;;16.00;99.90;;;;;;5094904;28;20109;-72
2022/08/22 09:48:45;;;;;;;4.18;3.42;;;16.00;99.90;;;;;;5094847;28;20032;-77
2022/08/22 09:51:23;;;;;;;2.30;2.17;;;16.10;99.90;;;;;;5094762;28;20042;-74
2022/08/22 09:54:09;;;;;;;2.20;2.00;;;16.10;99.90;;;;;;5095148;28;20037;-75
2022/08/22 09:56:47;;;;;;;2.05;1.80;;;16.10;99.90;;;;;;5094464;28;20028;-75
2022/08/22 09:59:26;;;;;;;1.70;1.60;;;16.10;99.90;;;;;;5093454;28;20054;-75
2022/08/22 10:02:19;;;;;;;1.80;1.70;;;16.00;99.90;;;;;;5093442;28;20028;-76
2022/08/22 10:04:52;;;;;;;2.30;1.65;;;16.00;99.90;;;;;;5094827;28;20035;-76
2022/08/22 10:07:44;;;;;;;1.80;1.70;;;16.10;99.90;;;;;;5094494;28;20028;-75
2022/08/22 10:10:30;;;;;;;1.33;1.23;;;16.10;99.90;;;;;;5094787;28;20054;-75
2022/08/22 10:13:15;;;;;;;1.40;1.30;;;16.00;99.90;;;;;;5094574;28;20020;-78
2022/08/22 10:15:55;;;;;;;1.15;0.77;;;15.90;99.90;;;;;;5094463;28;20110;-78
2022/08/22 10:18:40;;;;;;;1.58;1.48;;;15.70;99.90;;;;;;5093973;28;20384;-77
2022/08/22 10:21:09;;;;;;;1.23;1.13;;;15.70;99.90;;;;;;5094183;28;20028;-78
2022/08/22 10:23:43;;;;;;;2.03;1.40;;;15.80;99.90;;;;;;5094306;28;20473;-78
2022/08/22 10:26:21;;;;;;;4.90;1.55;;;15.70;99.90;;;;;;5092874;28;20785;-77
2022/08/22 10:28:56;;;;;;;2.28;1.85;;;15.70;99.90;;;;;;5093976;28;20495;-76
2022/08/22 10:32:18;;;;;;;2.33;2.10;;;15.70;99.90;;;;;;5094287;28;20369;-75
2022/08/22 10:34:48;;;;;;;1.88;1.77;;;15.70;99.90;;;;;;5031558;28;20029;-77
2022/08/22 10:37:36;;;;;;;1.63;1.55;;;15.70;99.90;;;;;;5015027;28;20105;-78
2022/08/22 10:40:05;;;;;;;1.50;1.42;;;15.80;99.90;;;;;;5015186;28;20128;-74
2022/08/22 10:42:36;;;;;;;0.90;0.90;;;15.80;99.90;;;;;;5031454;28;20029;-74
2022/08/22 10:45:22;;;;;;;1.80;1.70;;;15.80;99.90;;;;;;5014848;28;20033;-76
2022/08/22 10:47:57;;;;;;;1.90;1.70;;;15.80;99.90;;;;;;5031672;28;20045;-75
2022/08/22 10:50:30;;;;;;;1.40;1.00;;;15.90;99.90;;;;;;5031412;28;20055;-75
2022/08/22 10:56:17;;;;;;;0.70;0.70;;;16.00;99.90;;;;;;5031807;28;20537;-74
2022/08/22 10:59:05;;;;;;;1.02;0.30;;;16.00;99.90;;;;;;5031418;28;20132;-74
2022/08/22 11:01:39;;;;;;;1.85;0.80;;;15.90;99.90;;;;;;5031392;28;20475;-73
2022/08/22 11:04:31;;;;;;;0.68;0.50;;;15.80;99.90;;;;;;5033882;28;20036;-74
2022/08/22 11:07:46;;;;;;;1.75;0.70;;;15.90;99.90;;;;;;5097101;28;20086;-74
2022/08/22 11:10:37;;;;;;;2.70;0.52;;;15.90;99.90;;;;;;5097905;28;20044;-59
2022/08/22 11:13:26;;;;;;;2.50;0.70;;;15.90;99.90;;;;;;5098230;28;20107;-59
2022/08/22 11:16:11;;;;;;;0.65;0.65;;;15.90;99.90;;;;;;5098046;28;20476;-58
2022/08/22 11:18:46;;;;;;;3.10;0.60;;;16.00;99.90;;;;;;5096449;28;20370;-59
2022/08/22 11:21:37;;;;;;;0.30;0.30;;;16.10;99.90;;;;;;5097666;28;20107;-59
2022/08/22 11:24:24;;;;;;;1.73;0.40;;;16.00;99.90;;;;;;5097334;28;20081;-59
2022/08/22 11:27:04;;;;;;;1.95;0.20;;;15.90;99.90;;;;;;5096209;28;20035;-59
2022/08/22 11:29:38;;;;;;;0.38;0.38;;;15.90;99.90;;;;;;5097855;28;20031;-59
2022/08/22 11:32:21;;;;;;;1.48;0.60;;;15.90;99.90;;;;;;5097191;28;20021;-59
2022/08/22 11:35:04;;;;;;;0.32;0.30;;;15.90;99.90;;;;;;5096227;28;20024;-59
2022/08/22 11:37:41;;;;;;;0.50;0.50;;;15.90;99.90;;;;;;5096152;28;20028;-70
2022/08/22 11:40:13;;;;;;;3.63;0.50;;;15.80;99.90;;;;;;5097237;28;20046;-77
2022/08/22 11:43:09;;;;;;;1.02;0.70;;;15.70;99.90;;;;;;5098190;28;20030;-76
2022/08/22 11:45:45;;;;;;;1.95;0.40;;;15.70;99.90;;;;;;5098960;28;20056;-75
2022/08/22 11:48:26;;;;;;;1.67;0.45;;;15.60;99.90;;;;;;5100538;28;20060;-76
2022/08/22 11:51:06;;;;;;;2.30;0.80;;;15.60;99.90;;;;;;5098247;28;20032;-76
2022/08/22 11:53:47;;;;;;;0.30;0.30;;;15.70;99.90;;;;;;5099088;28;20107;-75
2022/08/22 11:56:39;;;;;;;0.40;0.40;;;15.60;99.90;;;;;;5098017;28;20050;-76
2022/08/22 11:59:13;;;;;;;1.83;0.60;;;15.70;99.90;;;;;;5099668;28;20028;-76
2022/08/22 12:01:58;;;;;;;0.40;0.40;;;15.70;99.90;;;;;;5098362;28;20419;-76
2022/08/22 12:04:44;;;;;;;0.47;0.47;;;15.70;99.90;;;;;;5097876;28;20074;-76
2022/08/22 12:07:18;;;;;;;1.45;0.88;;;15.80;99.90;;;;;;5097818;28;20032;-76
2022/08/22 12:10:05;;;;;;;0.60;0.50;;;15.80;99.90;;;;;;5096244;28;20361;-76
2022/08/22 12:12:54;;;;;;;0.25;0.25;;;15.90;99.90;;;;;;5097355;28;20020;-75
2022/08/22 12:15:51;;;;;;;0.75;0.30;;;16.00;99.90;;;;;;5096350;28;20062;-57
2022/08/22 12:18:28;;;;;;;0.30;0.30;;;16.00;99.90;;;;;;5095333;28;20048;-57
2022/08/22 12:21:13;;;;;;;0.85;0.35;;;16.20;99.90;;;;;;5096930;28;20023;-59
2022/08/22 12:24:03;;;;;;;0.50;0.50;;;16.30;99.90;;;;;;5096636;28;20034;-56
2022/08/22 12:26:50;;;;;;;0.30;0.30;;;16.40;99.90;;;;;;5097188;28;20111;-70
2022/08/22 12:30:01;;;;;;;0.40;0.40;;;16.40;99.90;;;;;;5098766;28;20111;-74
2022/08/22 12:32:48;;;;;;;1.95;0.45;;;16.20;99.90;;;;;;5097967;28;20094;-74
2022/08/22 12:35:32;;;;;;;2.55;0.57;;;16.00;99.90;;;;;;5098288;28;20354;-74
2022/08/22 12:38:30;;;;;;;0.30;0.30;;;16.00;99.90;;;;;;5097482;28;20026;-74
2022/08/22 12:41:14;;;;;;;0.90;0.60;;;16.10;99.90;;;;;;5097842;28;20028;-75
2022/08/22 12:44:00;;;;;;;0.77;0.52;;;16.10;99.90;;;;;;5098692;28;20366;-74
2022/08/22 12:46:55;;;;;;;0.52;0.40;;;16.10;99.90;;;;;;5099320;28;20085;-73
2022/08/22 12:49:52;;;;;;;0.60;0.60;;;16.10;99.90;;;;;;5099216;28;20367;-75
2022/08/22 12:52:48;;;;;;;0.52;0.30;;;16.10;99.90;;;;;;5098696;28;20024;-73
2022/08/22 12:55:14;;;;;;;0.40;0.40;;;16.10;99.90;;;;;;5097511;28;20028;-68
2022/08/22 12:57:52;;;;;;;0.40;0.40;;;16.10;99.90;;;;;;5096181;28;20024;-77
2022/08/22 13:00:42;;;;;;;1.85;0.60;;;16.10;99.90;;;;;;5097242;28;20024;-57
2022/08/22 13:03:20;;;;;;;1.88;0.40;;;16.00;99.90;;;;;;5096120;28;20400;-57
2022/08/22 13:05:47;;;;;;;1.98;0.50;;;16.10;99.90;;;;;;5096059;28;20024;-57
2022/08/22 13:08:22;;;;;;;0.60;0.47;;;16.10;99.90;;;;;;5095925;28;20407;-56
2022/08/22 13:11:05;;;;;;;2.38;1.00;;;16.00;99.90;;;;;;5095847;28;20031;-57
2022/08/22 13:13:49;;;;;;;1.10;1.00;;;16.00;99.90;;;;;;5095312;28;20402;-57
2022/08/22 13:16:19;;;;;;;1.30;1.30;;;15.90;99.90;;;;;;5095308;28;20386;-57
2022/08/22 13:18:51;;;;;;;3.78;2.42;;;15.90;99.90;;;;;;5095185;28;20040;-56
2022/08/22 13:21:30;;;;;;;2.05;1.65;;;15.90;99.90;;;;;;5095893;28;20399;-57
2022/08/22 13:23:57;;;;;;;;;;;16.00;99.90;;;;;;5095591;28;20028;-57
2022/08/22 13:26:26;;;;;;;1.40;1.30;;;16.00;99.90;;;;;;5094684;28;19908;-57
2022/08/22 13:28:59;;;;;;;1.80;1.70;;;16.10;99.90;;;;;;5095002;28;20040;-62
2022/08/22 13:31:30;;;;;;;2.22;1.60;;;16.30;99.90;;;;;;5095239;28;20111;-63
2022/08/22 13:34:16;;;;;;;1.90;1.80;;;16.40;99.90;;;;;;5095607;28;20039;-75
2022/08/22 13:36:46;;;;;;;3.45;1.63;;;16.40;99.90;;;;;;5094033;28;20031;-75
2022/08/22 13:39:12;;;;;;;1.80;1.70;;;16.30;99.90;;;;;;5095259;28;20028;-75
2022/08/22 13:41:52;;;;;;;2.40;2.20;;;16.20;99.90;;;;;;5095058;28;20511;-74
2022/08/22 13:44:25;;;;;;;2.13;2.00;;;16.10;99.90;;;;;;5094735;28;20085;-73
2022/08/22 13:46:53;;;;;;;2.50;2.30;;;16.10;99.90;;;;;;5093620;28;20036;-73
2022/08/22 13:49:31;;;;;;;2.13;1.90;;;16.10;99.90;;;;;;5094985;28;20096;-73
2022/08/22 13:52:09;;;;;;;2.00;1.80;;;16.10;99.90;;;;;;5094064;28;20115;-73
2022/08/22 13:55:13;;;;;;;4.30;1.98;;;16.10;99.90;;;;;;5095366;28;20103;-57
2022/08/22 13:57:46;;;;;;;1.70;1.60;;;16.30;99.90;;;;;;5083559;28;20040;-64
2022/08/22 14:00:18;;;;;;;4.75;1.40;;;16.40;99.90;;;;;;5093704;28;20489;-64
2022/08/22 14:02:56;;;;;;;1.50;1.33;;;16.50;99.90;;;;;;5094504;28;20020;-64
2022/08/22 14:05:32;;;;;;;1.50;1.40;;;16.50;99.90;;;;;;5094710;28;20032;-68